Time;durP1;ratioP1;P1;durP2;ratioP2;P2;SDS_P1;SDS_P2;PMS_P1;PMS_P2;Temp;Humidity;BMP_temperature;BMP_pressure;BME280_temperature;BME280_humidity;BME280_pressure;Samples;Min_cycle;Max_cycle;Signal;HPM_P1;HPM_P2
2021/11/11 00:01:51;;;;;;;20.90;18.70;;;6.20;79.80;;;;;;5119259;28;20198;-37
2021/11/11 00:04:20;;;;;;;25.87;21.33;;;6.20;79.80;;;;;;5119407;28;20422;-38
2021/11/11 00:06:47;;;;;;;28.07;21.03;;;6.20;79.90;;;;;;5119327;28;20260;-38
2021/11/11 00:09:14;;;;;;;23.17;20.40;;;6.10;80.00;;;;;;5101462;28;20426;-38
2021/11/11 00:11:40;;;;;;;23.30;20.53;;;6.10;80.10;;;;;;5118000;28;20514;-38
2021/11/11 00:14:06;;;;;;;22.90;19.87;;;6.10;80.20;;;;;;5119279;28;20426;-38
2021/11/11 00:16:32;;;;;;;26.87;22.63;;;6.10;80.30;;;;;;5101148;28;20491;-38
2021/11/11 00:18:59;;;;;;;31.00;22.60;;;6.00;80.30;;;;;;5116604;28;20249;-38
2021/11/11 00:21:24;;;;;;;23.80;20.00;;;6.00;80.40;;;;;;5110187;28;20428;-38
2021/11/11 00:23:50;;;;;;;28.93;21.77;;;6.00;80.60;;;;;;5098341;28;20781;-38
2021/11/11 00:26:16;;;;;;;23.70;21.13;;;6.00;80.80;;;;;;5101213;28;20283;-38
2021/11/11 00:28:41;;;;;;;21.80;18.40;;;6.00;80.80;;;;;;5119049;28;20172;-39
2021/11/11 00:31:09;;;;;;;21.67;19.30;;;5.90;80.80;;;;;;5119223;28;20216;-37
2021/11/11 00:33:36;;;;;;;24.43;20.60;;;5.90;80.80;;;;;;5098017;28;20265;-37
2021/11/11 00:36:03;;;;;;;23.87;18.80;;;5.90;80.90;;;;;;5103813;28;20415;-40
2021/11/11 00:38:28;;;;;;;23.63;20.67;;;5.90;81.00;;;;;;5104159;28;20422;-37
2021/11/11 00:40:54;;;;;;;21.93;19.60;;;5.80;81.00;;;;;;5104733;28;20425;-39
2021/11/11 00:43:20;;;;;;;23.30;19.33;;;5.80;81.10;;;;;;5101633;28;20221;-37
2021/11/11 00:45:45;;;;;;;22.20;19.60;;;5.80;81.20;;;;;;5104386;28;20203;-36
2021/11/11 00:48:11;;;;;;;21.60;19.40;;;5.80;81.40;;;;;;5106923;28;20507;-37
2021/11/11 00:54:37;;;;;;;23.63;20.17;;;5.80;81.60;;;;;;5100941;28;20878;-38
2021/11/11 00:57:03;;;;;;;22.67;19.07;;;5.70;81.50;;;;;;5086826;28;20432;-38
2021/11/11 00:59:28;;;;;;;23.40;19.83;;;5.70;81.60;;;;;;5103321;28;20410;-38
2021/11/11 01:01:54;;;;;;;21.77;19.07;;;5.70;81.70;;;;;;5104018;28;20537;-38
2021/11/11 01:04:20;;;;;;;20.73;18.53;;;5.70;81.80;;;;;;5100908;28;20185;-37
2021/11/11 01:06:45;;;;;;;22.03;18.77;;;5.70;81.80;;;;;;5106676;28;20180;-38
2021/11/11 01:09:11;;;;;;;21.77;19.57;;;5.70;81.90;;;;;;5105935;28;20207;-37
2021/11/11 01:11:37;;;;;;;22.80;18.17;;;5.70;82.00;;;;;;5103770;28;20462;-38
2021/11/11 01:14:03;;;;;;;21.47;18.17;;;5.60;82.00;;;;;;5103124;28;20172;-38
2021/11/11 01:16:28;;;;;;;22.77;18.40;;;5.60;82.10;;;;;;5104318;28;20426;-37
2021/11/11 01:18:57;;;;;;;21.50;18.47;;;5.60;82.20;;;;;;5089879;28;20575;-37
2021/11/11 01:21:23;;;;;;;21.97;19.40;;;5.60;82.30;;;;;;5107488;28;20267;-39
2021/11/11 01:23:49;;;;;;;23.83;18.47;;;5.60;82.40;;;;;;5112652;28;20456;-38
2021/11/11 01:26:14;;;;;;;21.77;19.00;;;5.50;82.20;;;;;;5118279;28;20203;-36
2021/11/11 01:28:40;;;;;;;23.90;19.50;;;5.50;82.30;;;;;;5118857;28;20188;-37
2021/11/11 01:31:06;;;;;;;21.07;18.47;;;5.50;82.50;;;;;;5117877;28;20204;-37
2021/11/11 01:33:32;;;;;;;22.37;18.03;;;5.50;82.50;;;;;;5119021;28;20176;-38
2021/11/11 01:35:58;;;;;;;20.43;18.33;;;5.50;82.50;;;;;;5118029;28;20180;-38
2021/11/11 01:38:24;;;;;;;21.83;18.90;;;5.40;82.40;;;;;;5119016;28;20935;-38
2021/11/11 01:40:50;;;;;;;19.70;17.60;;;5.40;82.50;;;;;;5099834;28;20719;-39
2021/11/11 01:43:16;;;;;;;19.17;17.17;;;5.40;82.50;;;;;;5118964;28;20334;-37
2021/11/11 01:45:43;;;;;;;21.57;18.83;;;5.40;82.90;;;;;;5117600;28;20450;-38
2021/11/11 01:48:15;;;;;;;21.53;18.03;;;5.40;82.50;;;;;;5118548;28;20570;-38
2021/11/11 01:50:42;;;;;;;20.33;17.37;;;5.40;82.60;;;;;;5118191;28;20790;-38
2021/11/11 01:53:09;;;;;;;19.97;17.70;;;5.40;82.70;;;;;;5099971;28;20442;-46
2021/11/11 01:55:37;;;;;;;17.73;15.83;;;5.40;82.70;;;;;;5120516;28;20460;-47
2021/11/11 01:58:03;;;;;;;21.03;18.10;;;5.40;82.70;;;;;;5121047;28;20478;-46
2021/11/11 02:00:35;;;;;;;20.63;17.33;;;5.30;82.60;;;;;;5121047;28;20726;-46
2021/11/11 02:03:04;;;;;;;22.00;18.20;;;5.30;82.70;;;;;;5121184;28;20475;-46
2021/11/11 02:05:30;;;;;;;20.57;17.77;;;5.30;82.80;;;;;;5121463;28;20422;-46
2021/11/11 02:07:56;;;;;;;22.73;17.83;;;5.30;82.80;;;;;;5121306;28;20516;-46
2021/11/11 02:10:24;;;;;;;21.40;18.10;;;5.30;82.70;;;;;;5120868;28;20536;-46
2021/11/11 02:12:50;;;;;;;20.20;18.10;;;5.30;82.70;;;;;;5121015;28;20287;-46
2021/11/11 02:15:18;;;;;;;19.53;17.03;;;5.20;82.80;;;;;;5102975;28;20505;-46
2021/11/11 02:21:06;;;;;;;18.20;16.30;;;5.20;82.90;;;;;;5109678;28;20913;-46
2021/11/11 02:23:32;;;;;;;19.13;17.13;;;5.20;82.90;;;;;;5118603;28;20530;-46
2021/11/11 02:25:58;;;;;;;18.73;16.73;;;5.20;83.00;;;;;;5120818;28;20442;-46
2021/11/11 02:28:24;;;;;;;19.80;16.70;;;5.20;83.10;;;;;;5102887;28;20896;-46
2021/11/11 02:30:53;;;;;;;22.57;18.17;;;5.20;83.10;;;;;;5120339;28;20800;-46
2021/11/11 02:33:21;;;;;;;21.43;16.57;;;5.20;83.10;;;;;;5120637;28;20414;-46
2021/11/11 02:35:48;;;;;;;20.53;18.03;;;5.10;82.90;;;;;;5120567;28;20425;-46
2021/11/11 02:38:14;;;;;;;19.03;17.07;;;5.10;83.00;;;;;;5120308;28;20493;-46
2021/11/11 02:40:41;;;;;;;19.87;17.77;;;5.10;82.90;;;;;;5120679;28;20903;-46
2021/11/11 02:43:07;;;;;;;19.13;17.13;;;5.10;82.90;;;;;;5120018;28;20537;-46
2021/11/11 02:45:36;;;;;;;20.03;17.70;;;5.10;83.00;;;;;;5120641;28;20430;-45
2021/11/11 02:48:03;;;;;;;21.23;17.47;;;5.10;83.10;;;;;;5120270;28;20426;-46
2021/11/11 02:50:29;;;;;;;18.53;16.67;;;5.00;83.10;;;;;;5120432;28;20476;-46
2021/11/11 02:52:56;;;;;;;20.50;17.73;;;5.00;83.10;;;;;;5119961;28;20718;-46
2021/11/11 02:55:22;;;;;;;19.40;17.23;;;5.00;83.20;;;;;;5120158;28;20820;-46
2021/11/11 02:57:49;;;;;;;20.37;18.00;;;5.00;83.20;;;;;;5120328;28;20695;-45
2021/11/11 03:00:25;;;;;;;20.17;17.13;;;5.00;83.30;;;;;;5120256;28;20176;-46
2021/11/11 03:02:52;;;;;;;18.67;16.87;;;5.00;83.40;;;;;;5120364;28;20418;-46
2021/11/11 03:05:21;;;;;;;17.53;15.73;;;5.00;83.40;;;;;;5119429;28;20414;-46
2021/11/11 03:07:47;;;;;;;18.67;16.70;;;5.00;83.50;;;;;;5119763;28;20848;-46
2021/11/11 03:10:18;;;;;;;18.30;16.03;;;5.00;83.50;;;;;;5119626;28;20817;-46
2021/11/11 03:12:44;;;;;;;20.07;17.97;;;5.00;83.60;;;;;;5119957;28;20180;-46
2021/11/11 03:15:11;;;;;;;17.73;15.80;;;5.00;83.70;;;;;;5120210;28;20520;-46
2021/11/11 03:17:38;;;;;;;21.90;18.00;;;4.90;83.70;;;;;;5119725;28;20411;-46
2021/11/11 03:20:04;;;;;;;19.40;17.27;;;4.90;83.80;;;;;;5119558;28;20479;-46
2021/11/11 03:22:30;;;;;;;19.20;16.53;;;4.90;83.90;;;;;;5119657;28;20418;-46
2021/11/11 03:24:56;;;;;;;19.50;17.40;;;4.90;84.00;;;;;;5119861;28;20422;-46
2021/11/11 03:27:22;;;;;;;18.07;16.37;;;4.90;84.20;;;;;;5119303;28;20203;-46
2021/11/11 03:29:49;;;;;;;17.53;15.53;;;4.90;84.40;;;;;;5116160;28;20431;-47
2021/11/11 03:32:15;;;;;;;20.43;16.00;;;4.90;84.50;;;;;;5099034;28;20503;-46
2021/11/11 03:34:41;;;;;;;19.67;17.57;;;4.80;84.40;;;;;;5098717;28;20399;-46
2021/11/11 03:37:08;;;;;;;18.50;16.60;;;4.90;84.50;;;;;;5098719;28;20275;-46
2021/11/11 03:39:34;;;;;;;19.17;16.60;;;4.80;84.50;;;;;;5099203;28;20419;-46
2021/11/11 03:42:00;;;;;;;19.47;15.03;;;4.80;84.60;;;;;;5098703;28;20530;-46
2021/11/11 03:44:26;;;;;;;23.10;17.00;;;4.80;84.60;;;;;;5115484;28;20813;-46
2021/11/11 03:46:56;;;;;;;20.57;16.77;;;4.80;84.60;;;;;;5119452;28;20184;-46
2021/11/11 03:49:23;;;;;;;17.10;15.30;;;4.80;84.60;;;;;;5119321;28;20422;-46
2021/11/11 03:51:49;;;;;;;20.80;18.50;;;4.80;84.70;;;;;;5118849;28;20474;-46
2021/11/11 03:54:16;;;;;;;18.70;15.83;;;4.80;84.80;;;;;;5118947;28;20410;-46
2021/11/11 03:56:42;;;;;;;19.20;15.43;;;4.80;84.90;;;;;;5118390;28;20418;-46
2021/11/11 03:59:09;;;;;;;18.80;15.57;;;4.70;84.70;;;;;;5118631;28;20837;-46
2021/11/11 04:01:36;;;;;;;16.70;14.80;;;4.80;84.90;;;;;;5118839;28;20478;-46
2021/11/11 04:04:03;;;;;;;17.53;15.67;;;4.70;84.80;;;;;;5118573;28;20475;-45
2021/11/11 04:06:29;;;;;;;19.17;15.53;;;4.80;85.00;;;;;;5118799;28;20418;-46
2021/11/11 04:08:55;;;;;;;18.57;16.40;;;4.70;84.90;;;;;;5118799;28;20505;-46
2021/11/11 04:11:21;;;;;;;17.43;15.60;;;4.70;84.90;;;;;;5118155;28;20565;-46
2021/11/11 04:13:47;;;;;;;17.67;15.70;;;4.70;85.10;;;;;;5118016;28;20270;-46
2021/11/11 04:16:13;;;;;;;20.47;16.10;;;4.70;85.20;;;;;;5118164;28;20421;-46
2021/11/11 04:18:39;;;;;;;16.63;14.83;;;4.70;85.30;;;;;;5117587;28;20418;-46
2021/11/11 04:21:06;;;;;;;19.43;16.30;;;4.70;85.50;;;;;;5118253;28;20522;-45
2021/11/11 04:23:31;;;;;;;18.57;14.40;;;4.70;85.70;;;;;;5100830;28;20558;-46
2021/11/11 04:28:31;;;;;;;19.50;14.77;;;4.70;85.80;;;;;;5118036;28;20179;-46
2021/11/11 04:31:01;;;;;;;18.47;15.47;;;4.70;85.90;;;;;;5117979;28;20306;-46
2021/11/11 04:33:28;;;;;;;16.57;14.80;;;4.70;85.90;;;;;;5117174;28;20438;-46
2021/11/11 04:35:59;;;;;;;19.67;16.20;;;4.70;86.00;;;;;;5116891;28;20847;-46
2021/11/11 04:46:32;;;;;;;16.87;14.80;;;4.60;85.90;;;;;;5117405;28;20433;-46
2021/11/11 05:00:06;;;;;;;18.53;16.67;;;4.60;85.90;;;;;;5116170;28;20851;-46
2021/11/11 05:02:52;;;;;;;19.00;15.87;;;4.50;85.80;;;;;;5116632;28;20463;-45
2021/11/11 05:05:19;;;;;;;19.60;17.50;;;4.50;85.90;;;;;;5118371;28;20665;-41
2021/11/11 05:07:45;;;;;;;17.57;15.67;;;4.50;85.90;;;;;;5118412;28;20429;-45
2021/11/11 05:10:12;;;;;;;18.63;15.87;;;4.50;85.90;;;;;;5117788;28;20413;-42
2021/11/11 05:12:38;;;;;;;17.97;16.03;;;4.50;85.80;;;;;;5117036;28;20429;-42
2021/11/11 05:15:06;;;;;;;17.67;15.77;;;4.50;85.70;;;;;;5117697;28;20416;-42
2021/11/11 05:17:32;;;;;;;18.87;14.60;;;4.60;85.50;;;;;;5118052;28;20422;-44
2021/11/11 05:19:58;;;;;;;17.00;15.30;;;4.60;85.40;;;;;;5117729;28;20418;-41
2021/11/11 05:22:23;;;;;;;17.07;15.23;;;4.60;85.20;;;;;;5116180;28;20436;-41
2021/11/11 05:24:49;;;;;;;19.43;15.27;;;4.60;85.10;;;;;;5114806;28;20180;-42
2021/11/11 05:27:16;;;;;;;20.40;16.20;;;4.50;84.90;;;;;;5113811;28;20253;-43
2021/11/11 05:29:42;;;;;;;18.50;16.47;;;4.50;84.80;;;;;;5099190;28;20215;-43
2021/11/11 05:32:09;;;;;;;17.87;15.97;;;4.50;84.80;;;;;;5118355;28;20501;-43
2021/11/11 05:34:34;;;;;;;19.27;16.53;;;4.50;84.80;;;;;;5117781;28;20425;-42
2021/11/11 05:37:00;;;;;;;20.97;16.10;;;4.50;84.90;;;;;;5118553;28;20912;-43
2021/11/11 05:39:26;;;;;;;18.10;16.20;;;4.50;84.80;;;;;;5119222;28;20176;-43
2021/11/11 05:41:51;;;;;;;19.10;15.87;;;4.50;84.80;;;;;;5119503;28;20184;-42
2021/11/11 05:44:17;;;;;;;17.50;15.70;;;4.50;84.90;;;;;;5118605;28;20296;-43
2021/11/11 05:46:42;;;;;;;17.00;15.30;;;4.50;84.80;;;;;;5112917;28;20199;-41
2021/11/11 05:49:08;;;;;;;20.43;17.10;;;4.40;84.70;;;;;;5114176;28;20439;-42
2021/11/11 05:51:34;;;;;;;17.93;15.73;;;4.40;84.80;;;;;;5120886;28;20212;-42
2021/11/11 05:53:59;;;;;;;16.87;14.87;;;4.40;84.80;;;;;;5120956;28;20180;-43
2021/11/11 05:56:25;;;;;;;17.20;14.80;;;4.40;84.80;;;;;;5118474;28;20180;-44
2021/11/11 05:58:51;;;;;;;17.97;15.50;;;4.40;84.80;;;;;;5119746;28;20172;-44
2021/11/11 06:01:16;;;;;;;18.37;15.53;;;4.40;84.90;;;;;;5119395;28;20279;-43
2021/11/11 06:03:42;;;;;;;17.00;14.50;;;4.40;85.10;;;;;;5118393;28;20187;-44
2021/11/11 06:06:08;;;;;;;18.30;16.40;;;4.40;85.10;;;;;;5100995;28;20241;-42
2021/11/11 06:08:33;;;;;;;17.27;15.27;;;4.40;85.10;;;;;;5099790;28;20223;-45
2021/11/11 06:10:59;;;;;;;17.10;15.00;;;4.40;85.10;;;;;;5117836;28;20218;-43
2021/11/11 06:13:25;;;;;;;18.40;15.53;;;4.40;85.20;;;;;;5099083;28;20312;-43
2021/11/11 06:15:54;;;;;;;21.83;17.80;;;4.40;85.20;;;;;;5115659;28;20185;-44
2021/11/11 06:18:21;;;;;;;16.03;14.33;;;4.30;85.20;;;;;;5097404;28;20212;-43
2021/11/11 06:20:49;;;;;;;16.13;14.47;;;4.30;85.40;;;;;;5097140;28;20859;-43
2021/11/11 06:23:15;;;;;;;17.03;15.20;;;4.30;85.50;;;;;;5096256;28;20564;-42
2021/11/11 06:25:41;;;;;;;20.00;16.07;;;4.30;85.60;;;;;;5096859;28;20510;-44
2021/11/11 06:28:10;;;;;;;15.90;14.10;;;4.30;85.70;;;;;;5094727;28;20223;-44
2021/11/11 06:30:36;;;;;;;18.33;15.50;;;4.40;86.00;;;;;;5094629;28;20580;-42
2021/11/11 06:33:02;;;;;;;20.10;16.20;;;4.40;86.20;;;;;;5096105;28;20561;-44
2021/11/11 06:35:30;;;;;;;16.67;14.87;;;4.40;86.40;;;;;;5097348;28;20415;-45
2021/11/11 06:37:56;;;;;;;19.10;15.70;;;4.40;86.40;;;;;;5096663;28;20701;-43
2021/11/11 06:40:23;;;;;;;17.37;14.40;;;4.40;86.40;;;;;;5094419;28;20715;-44
2021/11/11 06:42:48;;;;;;;19.50;14.37;;;4.50;87.20;;;;;;5096491;28;20468;-43
2021/11/11 06:45:15;;;;;;;15.43;13.63;;;4.50;86.50;;;;;;5112921;28;20402;-43
2021/11/11 06:47:41;;;;;;;16.50;13.10;;;4.50;86.50;;;;;;5110413;28;20401;-43
2021/11/11 06:50:08;;;;;;;18.43;15.83;;;4.50;86.60;;;;;;5109941;28;20425;-43
2021/11/11 06:52:34;;;;;;;16.40;14.43;;;4.60;86.70;;;;;;5112374;28;20733;-42
2021/11/11 06:55:00;;;;;;;17.23;14.30;;;4.60;86.70;;;;;;5110122;28;20418;-44
2021/11/11 06:57:26;;;;;;;16.07;14.23;;;4.70;86.70;;;;;;5110385;28;20963;-44
2021/11/11 06:59:52;;;;;;;18.27;15.30;;;4.70;86.70;;;;;;5094345;28;20184;-42
2021/11/11 07:02:17;;;;;;;15.67;14.00;;;4.80;86.70;;;;;;5113602;28;20191;-42
2021/11/11 07:04:43;;;;;;;15.67;13.87;;;4.90;86.70;;;;;;5116086;28;20286;-43
2021/11/11 07:07:09;;;;;;;17.33;13.90;;;5.00;86.70;;;;;;5116173;28;20192;-44
2021/11/11 07:09:34;;;;;;;17.53;14.80;;;5.10;86.70;;;;;;5117014;28;20195;-42
2021/11/11 07:12:00;;;;;;;16.90;14.40;;;5.30;86.70;;;;;;5118169;28;20292;-45
2021/11/11 07:14:26;;;;;;;16.43;13.80;;;5.50;86.70;;;;;;5117791;28;20307;-42
2021/11/11 07:16:52;;;;;;;14.37;12.87;;;5.70;86.50;;;;;;5117414;28;20187;-43
2021/11/11 07:19:18;;;;;;;17.53;14.83;;;5.90;87.00;;;;;;5119037;28;20417;-43
2021/11/11 07:21:43;;;;;;;15.37;13.63;;;6.10;86.00;;;;;;5117020;28;20422;-44
2021/11/11 07:24:09;;;;;;;18.70;14.40;;;6.40;85.80;;;;;;5117219;28;20188;-42
2021/11/11 07:26:36;;;;;;;17.03;12.80;;;6.60;85.40;;;;;;5117072;28;20220;-42
2021/11/11 07:29:02;;;;;;;16.63;14.30;;;6.90;84.90;;;;;;5117510;28;20421;-45
2021/11/11 07:31:28;;;;;;;16.63;13.93;;;7.20;84.40;;;;;;5118252;28;20235;-44
2021/11/11 07:33:54;;;;;;;15.90;14.30;;;7.50;84.00;;;;;;5117632;28;20458;-43
2021/11/11 07:36:20;;;;;;;16.20;14.50;;;7.80;83.50;;;;;;5117255;28;20613;-43
2021/11/11 07:38:46;;;;;;;15.40;13.80;;;8.10;83.20;;;;;;5116532;28;20525;-44
2021/11/11 07:41:11;;;;;;;21.00;15.43;;;8.40;82.80;;;;;;5116542;28;20417;-44
2021/11/11 07:43:37;;;;;;;17.83;14.93;;;8.70;82.30;;;;;;5114698;28;20315;-44
2021/11/11 07:46:05;;;;;;;15.80;14.10;;;9.10;81.80;;;;;;5117382;28;20235;-45
2021/11/11 07:48:31;;;;;;;15.37;13.80;;;9.40;81.10;;;;;;5117369;28;20422;-43
2021/11/11 07:51:00;;;;;;;16.00;14.47;;;9.80;80.50;;;;;;5117613;28;20510;-42
2021/11/11 07:53:29;;;;;;;15.17;13.77;;;10.10;78.30;;;;;;5117609;28;20414;-45
2021/11/11 07:55:56;;;;;;;17.10;14.80;;;10.50;77.80;;;;;;5117179;28;20455;-44
2021/11/11 07:58:22;;;;;;;16.37;14.77;;;10.90;77.00;;;;;;5117912;28;20427;-45
2021/11/11 08:00:47;;;;;;;15.70;14.07;;;11.30;76.40;;;;;;5118129;28;20414;-45
2021/11/11 08:03:13;;;;;;;21.30;16.57;;;11.60;75.60;;;;;;5116719;28;20487;-43
2021/11/11 08:05:42;;;;;;;16.13;13.77;;;12.00;74.70;;;;;;5115341;28;20778;-42
2021/11/11 08:08:09;;;;;;;15.97;14.37;;;12.40;73.80;;;;;;5111502;28;20511;-42
2021/11/11 08:10:35;;;;;;;15.43;13.83;;;12.80;72.80;;;;;;5116244;28;20485;-43
2021/11/11 08:13:02;;;;;;;15.10;13.60;;;13.10;71.50;;;;;;5116498;28;20424;-41
2021/11/11 08:15:28;;;;;;;16.07;14.40;;;13.50;70.60;;;;;;5142607;27;21102;-43
2021/11/11 08:17:54;;;;;;;15.33;13.73;;;13.90;69.50;;;;;;5158045;27;20412;-44
2021/11/11 08:20:20;;;;;;;16.20;14.40;;;14.30;68.40;;;;;;5149840;27;20183;-44
2021/11/11 08:22:50;;;;;;;17.53;14.20;;;14.70;67.10;;;;;;5156116;27;20424;-43
2021/11/11 08:25:18;;;;;;;14.90;13.30;;;15.00;65.20;;;;;;5151270;27;20298;-45
2021/11/11 08:27:44;;;;;;;18.00;14.40;;;15.40;63.70;;;;;;5158248;27;20424;-43
2021/11/11 08:30:13;;;;;;;15.20;13.77;;;15.60;61.80;;;;;;5158568;27;20508;-43
2021/11/11 08:32:41;;;;;;;16.00;13.77;;;16.00;60.00;;;;;;5156805;27;20486;-45
2021/11/11 08:35:09;;;;;;;16.73;14.90;;;16.40;59.20;;;;;;5155741;27;20423;-44
2021/11/11 08:37:38;;;;;;;18.63;16.10;;;16.70;58.10;;;;;;5155460;27;20746;-43
2021/11/11 08:40:07;;;;;;;16.20;14.23;;;17.00;56.90;;;;;;5154146;27;21034;-44
2021/11/11 08:42:33;;;;;;;16.70;14.90;;;17.40;56.30;;;;;;5154132;27;20420;-43
2021/11/11 08:44:59;;;;;;;17.00;15.30;;;17.70;55.20;;;;;;5152823;27;20588;-45
2021/11/11 08:47:25;;;;;;;15.37;13.67;;;18.10;54.20;;;;;;5153255;27;20425;-42
2021/11/11 08:49:53;;;;;;;18.33;16.57;;;18.40;53.50;;;;;;5136183;27;20905;-44
2021/11/11 08:52:20;;;;;;;18.43;14.40;;;18.80;52.30;;;;;;5136143;27;20972;-44
2021/11/11 08:54:46;;;;;;;15.63;13.10;;;19.10;51.40;;;;;;5154625;27;20423;-45
2021/11/11 08:57:12;;;;;;;15.13;13.73;;;19.50;50.60;;;;;;5153896;27;20428;-44
2021/11/11 08:59:39;;;;;;;15.73;14.17;;;19.80;49.60;;;;;;5154985;27;20247;-42
2021/11/11 09:02:05;;;;;;;16.40;14.70;;;20.10;48.90;;;;;;5155514;27;20947;-44
2021/11/11 09:04:31;;;;;;;15.67;14.10;;;20.50;48.30;;;;;;5158772;27;20849;-44
2021/11/11 09:06:59;;;;;;;15.10;13.63;;;20.90;47.30;;;;;;5141074;27;20427;-47
2021/11/11 09:09:25;;;;;;;15.17;13.40;;;21.30;46.80;;;;;;5159660;27;20805;-45
2021/11/11 09:11:51;;;;;;;14.43;13.03;;;21.70;45.90;;;;;;5159149;27;20452;-46
2021/11/11 09:14:16;;;;;;;14.77;13.20;;;22.00;45.00;;;;;;5159420;27;20283;-47
2021/11/11 09:16:43;;;;;;;17.10;14.37;;;22.40;44.50;;;;;;5159958;27;20175;-46
2021/11/11 09:19:10;;;;;;;14.50;13.20;;;22.70;43.80;;;;;;5157678;27;20267;-45
2021/11/11 09:21:37;;;;;;;13.27;11.97;;;23.10;43.10;;;;;;5155778;27;20415;-45
2021/11/11 09:24:02;;;;;;;14.00;12.40;;;23.40;42.60;;;;;;5141694;27;20474;-42
2021/11/11 09:26:28;;;;;;;12.47;11.27;;;23.80;41.80;;;;;;5160039;27;20436;-44
2021/11/11 09:28:55;;;;;;;14.17;12.80;;;24.10;41.20;;;;;;5159364;27;20496;-44
2021/11/11 09:31:23;;;;;;;15.07;11.97;;;24.40;40.60;;;;;;5160791;27;20247;-43
2021/11/11 09:33:49;;;;;;;13.80;12.47;;;24.70;40.30;;;;;;5161582;27;20689;-44
2021/11/11 09:36:16;;;;;;;15.33;12.20;;;25.10;39.70;;;;;;5161269;27;20497;-45
2021/11/11 09:38:43;;;;;;;15.83;11.97;;;25.40;39.30;;;;;;5160059;27;20519;-43
2021/11/11 09:41:12;;;;;;;14.73;13.33;;;25.70;38.60;;;;;;5160522;27;20417;-43
2021/11/11 09:43:39;;;;;;;13.23;11.90;;;26.00;38.30;;;;;;5160845;27;20416;-44
2021/11/11 09:46:08;;;;;;;13.83;12.30;;;26.30;37.90;;;;;;5159515;27;20413;-43
2021/11/11 09:48:35;;;;;;;14.47;13.07;;;26.60;37.40;;;;;;5158471;27;20416;-44
2021/11/11 09:51:03;;;;;;;14.43;12.93;;;27.00;36.90;;;;;;5140325;27;20495;-44
2021/11/11 09:53:29;;;;;;;13.90;12.50;;;27.20;36.60;;;;;;5158718;27;20427;-45
2021/11/11 09:58:49;;;;;;;12.03;10.83;;;27.90;35.80;;;;;;5157645;27;20703;-45
2021/11/11 10:01:18;;;;;;;12.60;11.30;;;28.30;35.20;;;;;;5157638;27;20837;-44
2021/11/11 10:03:48;;;;;;;12.70;11.60;;;28.60;34.90;;;;;;5158248;27;20451;-44
2021/11/11 10:06:16;;;;;;;11.93;11.00;;;28.90;34.40;;;;;;5153358;27;20794;-45
2021/11/11 10:08:50;;;;;;;11.97;10.97;;;29.20;34.10;;;;;;5137760;27;20408;-44
2021/11/11 10:11:29;;;;;;;12.10;10.90;;;29.50;33.80;;;;;;5138772;27;20559;-46
2021/11/11 10:13:57;;;;;;;11.43;7.83;;;30.00;33.40;;;;;;5138689;27;20405;-43
2021/11/11 10:16:23;;;;;;;8.20;7.40;;;30.30;37.00;;;;;;5134940;27;20468;-42
2021/11/11 10:18:58;;;;;;;8.97;8.07;;;30.90;39.00;;;;;;5137177;27;20501;-43
2021/11/11 10:21:45;;;;;;;8.97;8.10;;;31.60;39.60;;;;;;5139108;27;20173;-42
2021/11/11 10:24:32;;;;;;;8.60;7.90;;;32.30;38.90;;;;;;5138983;27;20729;-43
2021/11/11 10:27:10;;;;;;;8.60;7.80;;;33.20;37.90;;;;;;5120502;27;20444;-44
2021/11/11 10:29:38;;;;;;;10.40;9.40;;;34.00;37.40;;;;;;5138527;27;20426;-47
2021/11/11 10:32:21;;;;;;;9.83;9.03;;;34.70;36.00;;;;;;5137525;27;20444;-43
2021/11/11 10:34:54;;;;;;;9.50;8.60;;;35.40;35.20;;;;;;5138276;27;20395;-43
2021/11/11 10:37:21;;;;;;;10.03;9.23;;;36.30;34.50;;;;;;5120225;27;20394;-43
2021/11/11 10:39:50;;;;;;;10.07;8.10;;;36.70;33.40;;;;;;5138379;27;20707;-43
2021/11/11 10:42:19;;;;;;;8.17;7.37;;;37.40;32.80;;;;;;5138296;27;20482;-43
2021/11/11 10:44:48;;;;;;;8.50;7.50;;;38.50;31.80;;;;;;5137052;27;20432;-43
2021/11/11 10:47:26;;;;;;;10.90;9.80;;;39.30;31.00;;;;;;5119398;27;20473;-43
2021/11/11 10:49:52;;;;;;;8.50;7.60;;;40.20;29.80;;;;;;5118286;27;20402;-43
2021/11/11 10:52:24;;;;;;;8.60;7.90;;;40.90;29.40;;;;;;5137916;27;20392;-44
2021/11/11 10:55:16;;;;;;;8.73;8.00;;;41.70;28.80;;;;;;5119053;27;20287;-43
2021/11/11 10:58:12;;;;;;;8.93;8.10;;;42.10;27.90;;;;;;5137202;27;20504;-44
2021/11/11 11:00:53;;;;;;;9.80;8.90;;;42.50;27.20;;;;;;5139016;27;20468;-45
2021/11/11 11:03:30;;;;;;;9.90;8.90;;;43.00;26.90;;;;;;5138610;27;20494;-42
2021/11/11 11:06:03;;;;;;;9.90;9.10;;;43.30;26.70;;;;;;5134963;27;20407;-43
2021/11/11 11:08:33;;;;;;;11.17;10.00;;;43.50;26.30;;;;;;5131608;27;20612;-44
2021/11/11 11:11:00;;;;;;;9.50;8.60;;;43.80;25.80;;;;;;5133678;27;20415;-44
2021/11/11 11:13:32;;;;;;;10.00;9.20;;;44.00;25.70;;;;;;5132057;27;20872;-44
2021/11/11 11:16:09;;;;;;;9.27;8.57;;;44.00;25.40;;;;;;5133785;27;20466;-44
2021/11/11 11:18:43;;;;;;;8.73;8.13;;;44.20;25.10;;;;;;5135103;27;20515;-43
2021/11/11 11:21:14;;;;;;;8.70;8.00;;;44.30;25.00;;;;;;5117072;27;20463;-44
2021/11/11 11:23:51;;;;;;;9.37;8.67;;;44.50;24.70;;;;;;5134433;27;20525;-44
2021/11/11 11:26:20;;;;;;;8.83;7.90;;;44.60;24.50;;;;;;5133021;27;20759;-44
2021/11/11 11:28:50;;;;;;;10.17;9.40;;;44.70;24.50;;;;;;5135444;27;20454;-44
2021/11/11 11:31:24;;;;;;;8.80;8.10;;;44.80;24.30;;;;;;5118128;27;20436;-44
2021/11/11 11:33:50;;;;;;;8.37;7.77;;;44.90;24.20;;;;;;5136486;27;20772;-44
2021/11/11 11:36:18;;;;;;;9.17;8.37;;;44.90;24.30;;;;;;5134140;27;20433;-43
2021/11/11 11:38:52;;;;;;;9.33;8.63;;;44.90;24.20;;;;;;5115928;27;20745;-43
2021/11/11 11:41:26;;;;;;;8.60;7.70;;;44.90;24.00;;;;;;5116044;27;20462;-43
2021/11/11 11:43:53;;;;;;;8.80;8.10;;;44.70;24.20;;;;;;5134778;27;20418;-45
2021/11/11 11:46:24;;;;;;;8.63;7.93;;;44.90;24.10;;;;;;5116307;27;20453;-45
2021/11/11 11:48:50;;;;;;;10.30;9.50;;;44.70;24.20;;;;;;5135020;27;20401;-43
2021/11/11 11:51:20;;;;;;;9.83;9.10;;;44.70;23.90;;;;;;5135281;27;20442;-45
2021/11/11 11:54:23;;;;;;;8.83;8.23;;;44.50;24.10;;;;;;5117205;27;20425;-45
2021/11/11 11:56:46;;;;;;;8.80;8.10;;;44.40;24.00;;;;;;5129994;27;21016;-45
2021/11/11 11:59:16;;;;;;;9.40;8.70;;;44.60;23.90;;;;;;5137738;27;20802;-45
2021/11/11 12:09:35;;;;;;;13.37;12.00;;;44.70;24.00;;;;;;5134708;27;20429;-43
2021/11/11 12:40:31;;;;;;;11.70;10.80;;;44.10;23.80;;;;;;5156644;27;20490;-44
2021/11/11 12:43:01;;;;;;;11.27;10.47;;;44.10;23.80;;;;;;5155059;27;20515;-44
2021/11/11 12:45:30;;;;;;;11.53;10.57;;;44.10;24.00;;;;;;5137646;27;20427;-45
2021/11/11 12:48:19;;;;;;;10.93;10.03;;;44.00;23.90;;;;;;5154578;27;20403;-44
2021/11/11 12:51:03;;;;;;;13.90;12.70;;;43.90;23.90;;;;;;5155316;27;20424;-44
2021/11/11 12:53:31;;;;;;;12.17;10.97;;;43.80;23.90;;;;;;5154601;27;20416;-44
2021/11/11 12:56:16;;;;;;;12.33;11.33;;;43.80;24.10;;;;;;5154146;27;20430;-44
2021/11/11 12:58:48;;;;;;;11.73;10.53;;;43.70;24.00;;;;;;5155581;27;20426;-44
2021/11/11 13:01:24;;;;;;;11.77;10.77;;;43.80;24.00;;;;;;5137875;27;20906;-44
2021/11/11 13:03:56;;;;;;;13.00;12.00;;;43.80;23.90;;;;;;5133625;28;20402;-44
2021/11/11 13:06:45;;;;;;;10.83;10.13;;;43.70;23.90;;;;;;5113461;28;20727;-45
2021/11/11 13:09:34;;;;;;;12.40;11.33;;;43.60;23.90;;;;;;5132186;28;20652;-44
2021/11/11 13:12:05;;;;;;;11.50;10.60;;;43.30;23.90;;;;;;5130443;28;20513;-44
2021/11/11 13:14:33;;;;;;;12.03;11.13;;;43.20;24.00;;;;;;5130405;28;20471;-44
2021/11/11 13:16:59;;;;;;;13.43;12.33;;;43.10;23.90;;;;;;5132037;28;20438;-43
2021/11/11 13:19:31;;;;;;;13.13;12.07;;;43.00;24.30;;;;;;5132825;28;20414;-44
2021/11/11 13:22:04;;;;;;;13.43;12.33;;;42.80;24.00;;;;;;5132901;28;20306;-44
2021/11/11 13:24:44;;;;;;;14.47;13.30;;;42.90;23.80;;;;;;5133094;28;20427;-44
2021/11/11 13:28:01;;;;;;;14.17;12.80;;;43.00;23.40;;;;;;5133172;28;20408;-44
2021/11/11 15:16:21;;;;;;;16.30;14.80;;;26.00;29.40;;;;;;5157313;27;20468;-44
2021/11/11 16:03:04;;;;;;;15.67;14.27;;;17.90;36.90;;;;;;5136127;27;20464;-44
2021/11/11 16:24:59;;;;;;;19.40;15.00;;;15.90;39.30;;;;;;5102933;27;20408;-42
2021/11/11 16:27:30;;;;;;;18.00;16.17;;;15.70;39.60;;;;;;5155165;27;20481;-46
2021/11/11 16:30:11;;;;;;;18.77;16.87;;;15.50;39.80;;;;;;5135040;27;20444;-43
2021/11/11 16:32:37;;;;;;;21.20;19.00;;;15.30;40.10;;;;;;5153946;27;20516;-44
2021/11/11 16:35:08;;;;;;;21.40;17.80;;;15.20;40.50;;;;;;5154230;27;20697;-44
2021/11/11 16:37:34;;;;;;;21.13;18.90;;;15.00;40.60;;;;;;5152210;27;20444;-44
2021/11/11 16:40:00;;;;;;;20.73;18.57;;;14.80;40.90;;;;;;5153994;27;20412;-44